Time;durP1;ratioP1;P1;durP2;ratioP2;P2;SDS_P1;SDS_P2;PMS_P1;PMS_P2;Temp;Humidity;BMP_temperature;BMP_pressure;BME280_temperature;BME280_humidity;BME280_pressure;Samples;Min_cycle;Max_cycle;Signal;HPM_P1;HPM_P2
2023/03/04 00:02:23;;;;;;;4.95;1.30;;;6.10;99.90;;;;;;5096362;28;20100;-80
2023/03/04 00:04:49;;;;;;;0.00;0.00;;;6.10;99.90;;;;;;5096278;28;20093;-81
2023/03/04 00:07:15;;;;;;;2.00;0.60;;;6.10;99.90;;;;;;5100879;28;20043;-80
2023/03/04 00:09:43;;;;;;;0.47;0.43;;;6.10;99.90;;;;;;5117957;28;20043;-81
2023/03/04 00:12:09;;;;;;;0.00;0.00;;;6.10;99.90;;;;;;5117423;28;20051;-81
2023/03/04 00:14:34;;;;;;;0.00;0.00;;;6.10;99.90;;;;;;5100319;28;20044;-80
2023/03/04 00:17:03;;;;;;;0.10;0.10;;;6.10;99.90;;;;;;5100662;28;20117;-81
2023/03/04 00:19:29;;;;;;;0.80;0.35;;;6.10;99.90;;;;;;5100941;28;20060;-81
2023/03/04 00:21:55;;;;;;;0.13;0.08;;;6.00;99.90;;;;;;5117283;28;20071;-81
2023/03/04 00:24:21;;;;;;;0.00;0.00;;;6.10;99.90;;;;;;5100475;28;20051;-81
2023/03/04 00:26:47;;;;;;;0.00;0.00;;;6.10;99.90;;;;;;5117480;28;20048;-81
2023/03/04 00:29:12;;;;;;;0.00;0.00;;;6.10;99.90;;;;;;5100061;28;20483;-81
2023/03/04 00:31:38;;;;;;;0.30;0.30;;;6.10;99.90;;;;;;5117851;28;20043;-81
2023/03/04 00:34:04;;;;;;;0.05;0.05;;;6.00;99.90;;;;;;5083219;28;20040;-80
2023/03/04 00:36:29;;;;;;;0.00;0.00;;;6.10;99.90;;;;;;5100345;28;20354;-81
2023/03/04 00:38:55;;;;;;;0.75;0.45;;;6.10;99.90;;;;;;5100414;28;20151;-81
2023/03/04 00:41:21;;;;;;;0.00;0.00;;;6.10;99.90;;;;;;5100724;28;20482;-80
2023/03/04 00:43:46;;;;;;;0.30;0.30;;;6.10;99.90;;;;;;5116915;28;20086;-81
2023/03/04 00:46:12;;;;;;;0.00;0.00;;;6.10;99.90;;;;;;5099989;28;20380;-81
2023/03/04 00:48:38;;;;;;;0.00;0.00;;;6.10;99.90;;;;;;5099656;28;20070;-81
2023/03/04 00:51:04;;;;;;;0.00;0.00;;;6.10;99.90;;;;;;5099501;28;20054;-80
2023/03/04 00:53:30;;;;;;;0.00;0.00;;;6.10;99.90;;;;;;5116654;28;20549;-81
2023/03/04 00:55:55;;;;;;;0.00;0.00;;;6.10;99.90;;;;;;5099787;28;20134;-81
2023/03/04 00:58:21;;;;;;;0.00;0.00;;;6.10;99.90;;;;;;5100161;28;20478;-81
2023/03/04 01:00:47;;;;;;;0.00;0.00;;;6.10;99.90;;;;;;5116582;28;20098;-81
2023/03/04 01:03:12;;;;;;;0.00;0.00;;;6.00;99.90;;;;;;5099505;28;20126;-81
2023/03/04 01:05:38;;;;;;;0.40;0.03;;;6.00;99.90;;;;;;5116133;28;20044;-81
2023/03/04 01:08:04;;;;;;;0.10;0.10;;;6.00;99.90;;;;;;5116632;28;20126;-81
2023/03/04 01:10:30;;;;;;;0.00;0.00;;;6.00;99.90;;;;;;5099931;28;20107;-81
2023/03/04 01:12:56;;;;;;;0.00;0.00;;;6.00;99.90;;;;;;5116080;28;20472;-80
2023/03/04 01:15:22;;;;;;;10.63;1.48;;;6.00;99.90;;;;;;5115896;28;20101;-80
2023/03/04 01:17:48;;;;;;;1.45;0.52;;;6.00;99.90;;;;;;5098049;28;20095;-80
2023/03/04 01:20:14;;;;;;;0.00;0.00;;;5.90;99.90;;;;;;5116108;28;20150;-80
2023/03/04 01:22:40;;;;;;;0.00;0.00;;;6.00;99.90;;;;;;5116452;28;20048;-80
2023/03/04 01:25:07;;;;;;;0.00;0.00;;;6.00;99.90;;;;;;5065725;28;20054;-80
2023/03/04 01:27:33;;;;;;;0.00;0.00;;;6.00;99.90;;;;;;5099027;28;20510;-80
2023/03/04 01:29:58;;;;;;;0.03;0.03;;;6.00;99.90;;;;;;5099033;28;20036;-80
2023/03/04 01:32:24;;;;;;;0.00;0.00;;;6.00;99.90;;;;;;5099029;28;20043;-81
2023/03/04 01:34:50;;;;;;;0.00;0.00;;;6.00;99.90;;;;;;5098953;28;20054;-81
2023/03/04 01:37:15;;;;;;;0.00;0.00;;;6.00;99.90;;;;;;5115696;28;20044;-80
2023/03/04 01:39:41;;;;;;;0.00;0.00;;;6.00;99.90;;;;;;5099663;28;20109;-81
2023/03/04 01:42:17;;;;;;;0.47;0.47;;;6.00;99.90;;;;;;5115679;28;20048;-81
2023/03/04 01:44:44;;;;;;;0.00;0.00;;;6.00;99.90;;;;;;5098612;28;20512;-81
2023/03/04 01:47:10;;;;;;;2.17;0.93;;;6.00;99.90;;;;;;5098300;28;20134;-81
2023/03/04 01:49:35;;;;;;;0.20;0.20;;;6.00;99.90;;;;;;5098363;28;20130;-81
2023/03/04 01:52:01;;;;;;;0.00;0.00;;;6.00;99.90;;;;;;5082713;28;20052;-81
2023/03/04 01:54:27;;;;;;;1.92;0.40;;;6.00;99.90;;;;;;5098553;28;20052;-81
2023/03/04 01:56:54;;;;;;;0.00;0.00;;;6.00;99.90;;;;;;5098560;28;20096;-81
2023/03/04 01:59:25;;;;;;;0.00;0.00;;;6.00;99.90;;;;;;5115419;28;20047;-81
2023/03/04 02:01:53;;;;;;;0.00;0.00;;;6.00;99.90;;;;;;5115321;28;20529;-81
2023/03/04 02:04:29;;;;;;;0.10;0.10;;;6.00;99.90;;;;;;5116179;28;20050;-80
2023/03/04 02:06:56;;;;;;;0.00;0.00;;;6.00;99.90;;;;;;5116181;28;20047;-80
2023/03/04 02:09:22;;;;;;;0.00;0.00;;;6.00;99.90;;;;;;5081153;28;20042;-81
2023/03/04 02:11:50;;;;;;;0.00;0.00;;;5.90;99.90;;;;;;5099095;28;20048;-82
2023/03/04 02:14:16;;;;;;;0.20;0.20;;;5.90;99.90;;;;;;5097852;28;20057;-81
2023/03/04 02:16:42;;;;;;;0.00;0.00;;;6.00;99.90;;;;;;5098300;28;20135;-81
2023/03/04 02:19:27;;;;;;;0.00;0.00;;;6.00;99.90;;;;;;5098022;28;20499;-81
2023/03/04 02:21:53;;;;;;;0.20;0.20;;;6.00;99.90;;;;;;5115247;28;20044;-81
2023/03/04 02:24:30;;;;;;;1.00;0.15;;;6.00;99.90;;;;;;5098783;28;20043;-81
2023/03/04 02:26:55;;;;;;;0.00;0.00;;;6.00;99.90;;;;;;5098767;28;20065;-81
2023/03/04 02:29:21;;;;;;;0.00;0.00;;;5.90;99.90;;;;;;5097389;28;20040;-81
2023/03/04 02:31:49;;;;;;;1.25;0.80;;;6.00;99.90;;;;;;5097798;28;20044;-81
2023/03/04 02:34:19;;;;;;;0.10;0.00;;;5.90;99.90;;;;;;5114739;28;20100;-81
2023/03/04 02:36:46;;;;;;;2.60;0.00;;;5.90;99.90;;;;;;5114894;28;20051;-81
2023/03/04 02:39:33;;;;;;;0.57;0.10;;;5.90;99.90;;;;;;5114947;28;20139;-82
2023/03/04 02:42:00;;;;;;;1.20;0.15;;;5.90;99.90;;;;;;5097532;28;20086;-81
2023/03/04 02:44:31;;;;;;;0.00;0.00;;;5.90;99.90;;;;;;5097815;28;20406;-81
2023/03/04 02:46:57;;;;;;;0.00;0.00;;;5.90;99.90;;;;;;5097838;28;20057;-81
2023/03/04 02:49:26;;;;;;;0.90;0.35;;;6.00;99.90;;;;;;5097192;28;20032;-81
2023/03/04 02:51:57;;;;;;;0.00;0.00;;;6.00;99.90;;;;;;5114443;28;20414;-81
2023/03/04 02:54:24;;;;;;;0.00;0.00;;;6.00;99.90;;;;;;5097677;28;20371;-81
2023/03/04 02:56:53;;;;;;;0.15;0.15;;;5.90;99.90;;;;;;5080436;28;20054;-81
2023/03/04 02:59:20;;;;;;;0.00;0.00;;;6.00;99.90;;;;;;5097262;28;20506;-81
2023/03/04 03:01:46;;;;;;;0.52;0.30;;;6.00;99.90;;;;;;5097227;28;20044;-81
2023/03/04 03:04:12;;;;;;;0.10;0.10;;;5.90;99.90;;;;;;5114082;28;20046;-81
2023/03/04 03:06:39;;;;;;;0.00;0.00;;;5.80;99.90;;;;;;5097444;28;20074;-81
2023/03/04 03:09:05;;;;;;;1.73;0.40;;;5.90;99.90;;;;;;5114103;28;20047;-82
2023/03/04 03:11:31;;;;;;;0.00;0.00;;;6.00;99.90;;;;;;5080245;28;20043;-81
2023/03/04 03:13:57;;;;;;;0.00;0.00;;;5.90;99.90;;;;;;5113981;28;20047;-81
2023/03/04 03:16:23;;;;;;;3.70;0.35;;;5.80;99.90;;;;;;5113900;28;20066;-81
2023/03/04 03:18:49;;;;;;;0.00;0.00;;;5.90;99.90;;;;;;5113595;28;20487;-81
2023/03/04 03:21:15;;;;;;;0.30;0.30;;;5.90;99.90;;;;;;5097707;28;20054;-81
2023/03/04 03:23:41;;;;;;;0.00;0.00;;;5.90;99.90;;;;;;5096901;28;20522;-82
2023/03/04 03:26:07;;;;;;;0.00;0.00;;;5.80;99.90;;;;;;5097693;28;20090;-81
2023/03/04 03:28:32;;;;;;;0.30;0.10;;;5.80;99.90;;;;;;5063662;28;20073;-81
2023/03/04 03:30:58;;;;;;;0.00;0.00;;;5.80;99.90;;;;;;5096827;28;20390;-81
2023/03/04 03:33:23;;;;;;;0.00;0.00;;;5.80;99.90;;;;;;5114458;28;20047;-82
2023/03/04 03:35:49;;;;;;;0.00;0.00;;;5.80;99.90;;;;;;5096941;28;20475;-82
2023/03/04 03:38:15;;;;;;;0.00;0.00;;;5.80;99.90;;;;;;5096192;28;20047;-81
2023/03/04 03:40:41;;;;;;;0.13;0.13;;;5.80;99.90;;;;;;5096814;28;20126;-81
2023/03/04 03:43:06;;;;;;;0.05;0.05;;;5.90;99.90;;;;;;5113421;28;20574;-81
2023/03/04 03:45:32;;;;;;;0.10;0.10;;;5.80;99.90;;;;;;5062923;28;20040;-81
2023/03/04 03:47:58;;;;;;;0.10;0.10;;;5.80;99.90;;;;;;5096441;28;20383;-81
2023/03/04 03:50:23;;;;;;;0.00;0.00;;;5.80;99.90;;;;;;5096485;28;20036;-81
2023/03/04 03:52:49;;;;;;;0.00;0.00;;;5.80;99.90;;;;;;5096460;28;20044;-81
2023/03/04 03:55:15;;;;;;;0.00;0.00;;;5.80;99.90;;;;;;5096137;28;20044;-81
2023/03/04 03:57:41;;;;;;;0.00;0.00;;;5.80;99.90;;;;;;5096341;28;20039;-82
2023/03/04 04:00:08;;;;;;;0.00;0.00;;;5.80;99.90;;;;;;5113566;28;20047;-81
2023/03/04 04:02:34;;;;;;;0.00;0.00;;;5.80;99.90;;;;;;5079359;28;20044;-81
2023/03/04 04:04:59;;;;;;;0.00;0.00;;;5.80;99.90;;;;;;5112894;28;20062;-82
2023/03/04 04:07:25;;;;;;;0.00;0.00;;;5.80;99.90;;;;;;5096228;28;20043;-81
2023/03/04 04:09:51;;;;;;;0.00;0.00;;;5.80;99.90;;;;;;5112865;28;20510;-82
2023/03/04 04:12:18;;;;;;;0.00;0.00;;;5.80;99.90;;;;;;5079631;28;20044;-81
2023/03/04 04:14:44;;;;;;;0.00;0.00;;;5.80;99.90;;;;;;5113097;28;20039;-81
2023/03/04 04:17:10;;;;;;;0.00;0.00;;;5.80;99.90;;;;;;5096246;28;20389;-81
2023/03/04 04:19:36;;;;;;;2.45;0.10;;;5.80;99.90;;;;;;5113028;28;20103;-81
2023/03/04 04:22:02;;;;;;;0.00;0.00;;;5.80;99.90;;;;;;5113051;28;20035;-81
2023/03/04 04:24:28;;;;;;;0.13;0.13;;;5.80;99.90;;;;;;5113048;28;20054;-81
2023/03/04 04:26:54;;;;;;;0.00;0.00;;;5.70;99.90;;;;;;5079588;28;20394;-81
2023/03/04 04:29:21;;;;;;;0.00;0.00;;;5.80;99.90;;;;;;5112766;28;20065;-81
2023/03/04 04:31:47;;;;;;;0.43;0.43;;;5.80;99.90;;;;;;5096001;28;20395;-81
2023/03/04 04:34:13;;;;;;;0.08;0.05;;;5.70;99.90;;;;;;5112952;28;20059;-81
2023/03/04 04:36:39;;;;;;;0.00;0.00;;;5.70;99.90;;;;;;5096795;28;20122;-82
2023/03/04 04:39:05;;;;;;;0.00;0.00;;;5.70;99.90;;;;;;5095145;28;20055;-82
2023/03/04 04:41:37;;;;;;;0.00;0.00;;;5.70;99.90;;;;;;5095987;28;20039;-81
2023/03/04 04:44:02;;;;;;;0.00;0.00;;;5.70;99.90;;;;;;5096236;28;20047;-82
2023/03/04 04:46:28;;;;;;;0.00;0.00;;;5.70;99.90;;;;;;5079862;28;20052;-81
2023/03/04 04:48:54;;;;;;;0.00;0.00;;;5.70;99.90;;;;;;5112572;28;20047;-81
2023/03/04 04:51:20;;;;;;;0.00;0.00;;;5.70;99.90;;;;;;5096036;28;20122;-81
2023/03/04 04:53:47;;;;;;;0.00;0.00;;;5.70;99.90;;;;;;5116713;28;20046;-81
2023/03/04 04:56:18;;;;;;;0.00;0.00;;;5.70;99.90;;;;;;5099727;28;20040;-81
2023/03/04 04:58:45;;;;;;;0.00;0.00;;;5.80;99.90;;;;;;5099445;28;20088;-81
2023/03/04 05:01:11;;;;;;;1.35;0.90;;;5.70;99.90;;;;;;5082612;28;20044;-81
2023/03/04 05:03:37;;;;;;;0.00;0.00;;;5.70;99.90;;;;;;5117243;28;20055;-82
2023/03/04 05:06:05;;;;;;;0.00;0.00;;;5.70;99.90;;;;;;5099193;28;20132;-81
2023/03/04 05:08:30;;;;;;;0.00;0.00;;;5.70;99.90;;;;;;5099296;28;20510;-81
2023/03/04 05:10:56;;;;;;;0.00;0.00;;;5.60;99.90;;;;;;5117061;28;20126;-81
2023/03/04 05:13:22;;;;;;;0.00;0.00;;;5.60;99.90;;;;;;5099395;28;20044;-81
2023/03/04 05:15:52;;;;;;;0.00;0.00;;;5.70;99.90;;;;;;5082414;28;20372;-82
2023/03/04 05:18:19;;;;;;;0.00;0.00;;;5.60;99.90;;;;;;5098949;28;20499;-82
2023/03/04 05:20:48;;;;;;;0.00;0.00;;;5.70;99.90;;;;;;5116127;28;20040;-81
2023/03/04 05:23:14;;;;;;;0.00;0.00;;;5.60;99.90;;;;;;5116142;28;20391;-81
2023/03/04 05:25:39;;;;;;;0.00;0.00;;;5.60;99.90;;;;;;5082370;28;20047;-81
2023/03/04 05:28:11;;;;;;;5.18;0.82;;;5.70;99.90;;;;;;5099028;28;20555;-81
2023/03/04 05:30:38;;;;;;;0.00;0.00;;;5.60;99.90;;;;;;5098409;28;20112;-81
2023/03/04 05:33:03;;;;;;;0.00;0.00;;;5.60;99.90;;;;;;5098951;28;20059;-81
2023/03/04 05:35:29;;;;;;;0.00;0.00;;;5.70;99.90;;;;;;5099127;28;20039;-81
2023/03/04 05:37:55;;;;;;;0.00;0.00;;;5.60;99.90;;;;;;5098698;28;20476;-81
2023/03/04 05:40:23;;;;;;;0.00;0.00;;;5.60;99.90;;;;;;5098798;28;20441;-81
2023/03/04 05:42:48;;;;;;;0.38;0.30;;;5.60;99.90;;;;;;5115983;28;20054;-82
2023/03/04 05:45:14;;;;;;;0.00;0.00;;;5.60;99.90;;;;;;5098955;28;20138;-82
2023/03/04 05:47:40;;;;;;;0.08;0.00;;;5.60;99.90;;;;;;5099534;28;20078;-81
2023/03/04 05:50:06;;;;;;;0.00;0.00;;;5.60;99.90;;;;;;5081574;28;20044;-86
2023/03/04 05:52:31;;;;;;;28.58;1.27;;;5.60;99.90;;;;;;5098679;28;20039;-82
2023/03/04 05:54:57;;;;;;;0.00;0.00;;;5.60;99.90;;;;;;5081864;28;20051;-81
2023/03/04 05:57:23;;;;;;;0.00;0.00;;;5.60;99.90;;;;;;5115719;28;20047;-81
2023/03/04 05:59:48;;;;;;;0.00;0.00;;;5.60;99.90;;;;;;5081824;28;20360;-80
2023/03/04 06:02:14;;;;;;;0.00;0.00;;;5.60;99.90;;;;;;5115295;28;20079;-80
2023/03/04 06:04:40;;;;;;;0.00;0.00;;;5.60;99.90;;;;;;5080752;28;20053;-80
2023/03/04 06:07:05;;;;;;;0.00;0.00;;;5.60;71.80;;;;;;5081375;28;20043;-81
2023/03/04 06:09:32;;;;;;;0.88;0.43;;;5.60;72.10;;;;;;5097988;28;20040;-81
2023/03/04 06:11:58;;;;;;;0.00;0.00;;;5.60;73.10;;;;;;5115980;28;20425;-81
2023/03/04 06:14:23;;;;;;;0.00;0.00;;;5.60;72.20;;;;;;5115295;28;20100;-81
2023/03/04 06:16:49;;;;;;;0.00;0.00;;;5.60;73.40;;;;;;5081239;28;20083;-81
2023/03/04 06:19:15;;;;;;;0.00;0.00;;;5.60;74.60;;;;;;5081022;28;20047;-81
2023/03/04 06:21:40;;;;;;;0.00;0.00;;;5.60;76.50;;;;;;5081064;28;20044;-81
2023/03/04 06:24:06;;;;;;;0.00;0.00;;;5.60;78.40;;;;;;5081993;28;20043;-81
2023/03/04 06:26:32;;;;;;;19.60;0.28;;;5.50;80.00;;;;;;5115147;28;20055;-82
2023/03/04 06:28:57;;;;;;;0.03;0.03;;;5.60;81.90;;;;;;5098611;28;20535;-81
2023/03/04 06:31:23;;;;;;;0.00;0.00;;;5.60;75.90;;;;;;5097853;28;20035;-81
2023/03/04 06:33:49;;;;;;;0.00;0.00;;;5.60;80.70;;;;;;5114941;28;20043;-80
2023/03/04 06:36:15;;;;;;;0.00;0.00;;;5.50;82.80;;;;;;5064271;28;20078;-80
2023/03/04 06:38:40;;;;;;;0.00;0.00;;;5.50;83.90;;;;;;5081209;28;20055;-84
2023/03/04 06:41:08;;;;;;;0.00;0.00;;;5.50;83.80;;;;;;5097888;28;20051;-83
2023/03/04 06:43:34;;;;;;;0.00;0.00;;;5.50;78.00;;;;;;5114784;28;20108;-86
2023/03/04 06:45:59;;;;;;;0.00;0.00;;;5.40;77.10;;;;;;5097623;28;20444;-80
2023/03/04 06:48:25;;;;;;;0.00;0.00;;;5.40;71.50;;;;;;5081378;28;20087;-85
2023/03/04 06:50:50;;;;;;;0.00;0.00;;;5.50;77.70;;;;;;5097632;28;20051;-87
2023/03/04 06:53:16;;;;;;;0.00;0.00;;;5.50;75.70;;;;;;5097412;28;20055;-82
2023/03/04 06:55:42;;;;;;;0.00;0.00;;;5.50;79.30;;;;;;5114256;28;20043;-82
2023/03/04 06:58:08;;;;;;;0.00;0.00;;;5.50;84.40;;;;;;5080616;28;20047;-82
2023/03/04 07:00:33;;;;;;;0.00;0.00;;;5.50;82.00;;;;;;5114484;28;20039;-82
2023/03/04 07:02:59;;;;;;;0.00;0.00;;;5.60;84.00;;;;;;5115043;28;20371;-82
2023/03/04 07:05:25;;;;;;;0.00;0.00;;;5.60;88.20;;;;;;5096970;28;20040;-82
2023/03/04 07:07:51;;;;;;;1.75;0.00;;;5.60;89.70;;;;;;5097021;28;20040;-82
2023/03/04 07:10:18;;;;;;;0.88;0.55;;;5.70;86.30;;;;;;5063218;28;20165;-82
2023/03/04 07:12:43;;;;;;;0.63;0.63;;;5.80;90.10;;;;;;5097965;28;20055;-82
2023/03/04 07:15:09;;;;;;;1.88;0.55;;;5.80;86.40;;;;;;5096110;28;20043;-81
2023/03/04 07:17:35;;;;;;;0.00;0.00;;;5.90;83.70;;;;;;5097272;28;20040;-81
2023/03/04 07:20:01;;;;;;;0.20;0.20;;;6.00;84.90;;;;;;5113778;28;20058;-81
2023/03/04 07:22:27;;;;;;;0.00;0.00;;;6.10;84.80;;;;;;5080887;28;20047;-81
2023/03/04 07:24:52;;;;;;;0.00;0.00;;;6.10;85.20;;;;;;5097417;28;20422;-81
2023/03/04 07:27:18;;;;;;;9.48;0.10;;;6.20;89.30;;;;;;5096772;28;20039;-81
2023/03/04 07:29:44;;;;;;;0.00;0.00;;;6.30;90.60;;;;;;5096516;28;20039;-82
2023/03/04 07:32:10;;;;;;;0.00;0.00;;;6.40;95.90;;;;;;5079678;28;20039;-81
2023/03/04 07:34:36;;;;;;;0.00;0.00;;;6.40;96.20;;;;;;5096743;28;20109;-81
2023/03/04 07:37:01;;;;;;;0.65;0.35;;;6.40;99.90;;;;;;5096409;28;20046;-81
2023/03/04 07:39:27;;;;;;;0.00;0.00;;;6.40;97.80;;;;;;5096795;28;20091;-81
2023/03/04 07:41:53;;;;;;;0.00;0.00;;;6.40;99.90;;;;;;5096327;28;20047;-81
2023/03/04 07:44:18;;;;;;;0.00;0.00;;;6.40;88.40;;;;;;5097392;28;20090;-81
2023/03/04 07:46:44;;;;;;;0.00;0.00;;;6.50;92.10;;;;;;5112921;28;20039;-81
2023/03/04 07:49:13;;;;;;;0.17;0.17;;;6.50;94.30;;;;;;5113326;28;20073;-82
2023/03/04 07:51:39;;;;;;;0.00;0.00;;;6.50;92.80;;;;;;5079634;28;20051;-81
2023/03/04 07:54:05;;;;;;;0.00;0.00;;;6.50;93.30;;;;;;5114096;28;20039;-81
2023/03/04 07:56:33;;;;;;;0.00;0.00;;;6.60;90.60;;;;;;5062869;28;20364;-81
2023/03/04 07:58:59;;;;;;;13.45;0.13;;;6.60;99.90;;;;;;5097173;28;20051;-81
2023/03/04 08:01:29;;;;;;;0.00;0.00;;;6.70;99.90;;;;;;5096311;28;20430;-80
2023/03/04 08:03:56;;;;;;;0.00;0.00;;;6.70;99.90;;;;;;5096256;28;20048;-81
2023/03/04 08:06:22;;;;;;;0.00;0.00;;;7.00;99.90;;;;;;5079341;28;20050;-82
2023/03/04 08:08:48;;;;;;;0.00;0.00;;;7.30;99.90;;;;;;5096911;28;20106;-81
2023/03/04 08:11:17;;;;;;;0.00;0.00;;;7.60;99.90;;;;;;5096924;28;20112;-81
2023/03/04 08:13:44;;;;;;;0.00;0.00;;;7.70;99.90;;;;;;5113128;28;20043;-81
2023/03/04 08:16:14;;;;;;;0.00;0.00;;;7.70;99.90;;;;;;5096190;28;20047;-81
2023/03/04 08:18:41;;;;;;;0.00;0.00;;;7.70;99.90;;;;;;5096433;28;20051;-81
2023/03/04 08:21:09;;;;;;;0.00;0.00;;;7.70;99.90;;;;;;5096121;28;20104;-83
2023/03/04 08:23:34;;;;;;;0.20;0.20;;;7.70;99.90;;;;;;5079611;28;20050;-81
2023/03/04 08:26:05;;;;;;;1.13;0.22;;;7.60;99.90;;;;;;5096075;28;20118;-82
2023/03/04 08:28:31;;;;;;;0.00;0.00;;;7.60;99.90;;;;;;5100939;28;20070;-82
2023/03/04 08:30:56;;;;;;;2.83;1.15;;;7.40;99.90;;;;;;5100244;28;20491;-81
2023/03/04 08:33:22;;;;;;;3.30;0.52;;;7.30;99.90;;;;;;5083333;28;20043;-82
2023/03/04 08:35:48;;;;;;;0.20;0.20;;;7.20;99.90;;;;;;5083392;28;20043;-82
2023/03/04 08:38:14;;;;;;;0.00;0.00;;;7.20;99.90;;;;;;5116546;28;20058;-82
2023/03/04 08:40:39;;;;;;;0.38;0.28;;;7.10;99.90;;;;;;5083867;28;20055;-82
2023/03/04 08:43:05;;;;;;;0.00;0.00;;;7.00;99.90;;;;;;5116611;28;20048;-82
2023/03/04 08:45:31;;;;;;;0.20;0.20;;;7.00;99.90;;;;;;5082983;28;20051;-82
2023/03/04 08:47:56;;;;;;;0.00;0.00;;;6.90;99.90;;;;;;5116763;28;20055;-82
2023/03/04 08:50:22;;;;;;;0.10;0.10;;;6.90;94.50;;;;;;5099536;28;20082;-82
2023/03/04 08:52:48;;;;;;;0.00;0.00;;;6.90;92.90;;;;;;5082848;28;20046;-82
2023/03/04 08:55:13;;;;;;;0.00;0.00;;;6.80;93.70;;;;;;5099711;28;20044;-82
2023/03/04 08:57:39;;;;;;;0.00;0.00;;;6.90;96.10;;;;;;5082745;28;20093;-81
2023/03/04 09:00:05;;;;;;;0.00;0.00;;;6.90;95.60;;;;;;5066041;28;20084;-82
2023/03/04 09:02:31;;;;;;;0.75;0.65;;;7.10;94.40;;;;;;5116509;28;20058;-81
2023/03/04 09:04:57;;;;;;;0.00;0.00;;;7.30;94.80;;;;;;5116503;28;20118;-82
2023/03/04 09:07:23;;;;;;;0.00;0.00;;;7.50;93.80;;;;;;5116110;28;20047;-81
2023/03/04 09:09:48;;;;;;;0.00;0.00;;;7.70;93.30;;;;;;5116076;28;20092;-82
2023/03/04 09:12:14;;;;;;;0.10;0.10;;;7.90;91.00;;;;;;5100158;28;20138;-82
2023/03/04 09:14:40;;;;;;;0.52;0.52;;;8.20;99.90;;;;;;5065481;28;20138;-82
2023/03/04 09:17:06;;;;;;;0.00;0.00;;;8.30;99.90;;;;;;5099318;28;20048;-81
2023/03/04 09:19:31;;;;;;;0.28;0.28;;;8.40;76.20;;;;;;5065638;28;20184;-82
2023/03/04 09:22:00;;;;;;;0.00;0.00;;;8.40;71.80;;;;;;5116142;28;20156;-82
2023/03/04 09:24:27;;;;;;;0.00;0.00;;;8.40;99.90;;;;;;5099263;28;20108;-82
2023/03/04 09:26:53;;;;;;;0.00;0.00;;;8.30;99.90;;;;;;5116397;28;20493;-83
2023/03/04 09:29:20;;;;;;;0.00;0.00;;;8.10;99.90;;;;;;5098616;28;20075;-82
2023/03/04 09:31:46;;;;;;;0.00;0.00;;;7.90;99.90;;;;;;5115544;28;20131;-82
2023/03/04 09:34:12;;;;;;;0.00;0.00;;;7.70;99.90;;;;;;5081862;28;20040;-82
2023/03/04 09:36:38;;;;;;;0.38;0.00;;;7.60;99.90;;;;;;5115941;28;20429;-83
2023/03/04 09:39:05;;;;;;;0.00;0.00;;;7.60;99.90;;;;;;5096794;28;20055;-82
2023/03/04 09:41:44;;;;;;;0.00;0.00;;;7.60;99.90;;;;;;5098586;28;20174;-83
2023/03/04 09:44:32;;;;;;;0.00;0.00;;;7.60;99.90;;;;;;5116319;28;20055;-82
2023/03/04 09:47:01;;;;;;;1.85;1.05;;;7.60;99.90;;;;;;5116131;28;20345;-82
2023/03/04 09:49:29;;;;;;;0.10;0.10;;;7.70;99.90;;;;;;5098022;28;20039;-82
2023/03/04 09:52:03;;;;;;;0.00;0.00;;;7.90;99.90;;;;;;5081638;28;20055;-82
2023/03/04 09:55:07;;;;;;;0.15;0.15;;;8.10;99.90;;;;;;5098742;28;20468;-82
2023/03/04 09:57:51;;;;;;;0.00;0.00;;;8.10;99.90;;;;;;5115079;28;20043;-85
2023/03/04 10:00:24;;;;;;;0.00;0.00;;;8.20;99.90;;;;;;5097853;28;20047;-83
2023/03/04 10:03:03;;;;;;;0.00;0.00;;;8.20;99.90;;;;;;5099197;28;20040;-95
2023/03/04 10:05:33;;;;;;;0.00;0.00;;;8.10;99.90;;;;;;5098327;28;20040;-82
2023/03/04 10:08:22;;;;;;;0.00;0.00;;;8.10;99.90;;;;;;5114468;28;20051;-81
2023/03/04 10:10:50;;;;;;;0.00;0.00;;;8.00;99.90;;;;;;5096696;28;20071;-82
2023/03/04 10:13:23;;;;;;;2.75;0.70;;;7.90;99.90;;;;;;5098224;28;20395;-81
2023/03/04 10:15:50;;;;;;;0.13;0.13;;;8.00;99.90;;;;;;5115438;28;20482;-81
2023/03/04 10:18:26;;;;;;;0.32;0.32;;;7.90;99.90;;;;;;5098895;28;20592;-80
2023/03/04 10:21:03;;;;;;;0.08;0.08;;;7.90;99.90;;;;;;5098365;28;20189;-79
2023/03/04 10:23:32;;;;;;;0.00;0.00;;;7.90;99.90;;;;;;5114889;28;20048;-78
2023/03/04 10:26:07;;;;;;;0.03;0.03;;;7.80;99.90;;;;;;5114673;28;20044;-80
2023/03/04 10:28:34;;;;;;;6.78;1.55;;;7.90;99.90;;;;;;5098093;28;20506;-81
2023/03/04 10:31:07;;;;;;;9.30;1.25;;;7.80;99.90;;;;;;5080967;28;20112;-80
2023/03/04 10:33:35;;;;;;;0.32;0.28;;;7.90;99.90;;;;;;5114859;28;20471;-81
2023/03/04 10:36:29;;;;;;;0.20;0.20;;;7.90;99.90;;;;;;5097720;28;20046;-80
2023/03/04 10:39:16;;;;;;;0.28;0.20;;;8.00;99.90;;;;;;5114519;28;20122;-80
2023/03/04 10:42:03;;;;;;;0.00;0.00;;;8.10;99.90;;;;;;5098260;28;20046;-80
2023/03/04 10:44:31;;;;;;;4.47;0.80;;;8.10;99.90;;;;;;5097835;28;20116;-81
2023/03/04 10:46:57;;;;;;;0.00;0.00;;;8.20;99.90;;;;;;5114487;28;20235;-79
2023/03/04 10:49:25;;;;;;;0.00;0.00;;;8.20;99.90;;;;;;5097607;28;20076;-79
2023/03/04 10:52:20;;;;;;;1.02;0.25;;;8.20;99.90;;;;;;5114360;28;20395;-80
2023/03/04 10:54:50;;;;;;;0.00;0.00;;;8.20;99.90;;;;;;5114390;28;20052;-81
2023/03/04 10:57:26;;;;;;;0.00;0.00;;;8.20;99.90;;;;;;5114626;28;20079;-81
2023/03/04 11:00:00;;;;;;;0.00;0.00;;;8.10;99.90;;;;;;5115231;28;20376;-81
2023/03/04 11:02:34;;;;;;;0.00;0.00;;;8.10;99.90;;;;;;5114602;28;20036;-81
2023/03/04 11:05:23;;;;;;;0.00;0.00;;;8.00;99.90;;;;;;5113872;28;20088;-81
2023/03/04 11:07:50;;;;;;;1.65;0.63;;;8.00;99.90;;;;;;5099260;28;20083;-80
2023/03/04 11:10:24;;;;;;;0.00;0.00;;;7.90;99.90;;;;;;5113696;28;20048;-79
2023/03/04 11:12:58;;;;;;;0.00;0.00;;;7.90;99.90;;;;;;5097009;28;20391;-80
2023/03/04 11:15:26;;;;;;;0.43;0.10;;;8.00;99.90;;;;;;5097384;28;20372;-81
2023/03/04 11:17:58;;;;;;;0.00;0.00;;;8.00;99.90;;;;;;5113890;28;20426;-80
2023/03/04 11:20:39;;;;;;;0.00;0.00;;;8.10;99.90;;;;;;5113623;28;20044;-80
2023/03/04 11:23:17;;;;;;;0.00;0.00;;;8.20;99.90;;;;;;5114755;28;20118;-80
2023/03/04 11:25:48;;;;;;;0.10;0.10;;;8.30;99.90;;;;;;5097142;28;20050;-80
2023/03/04 11:28:23;;;;;;;0.22;0.20;;;8.40;99.90;;;;;;5097074;28;20511;-79
2023/03/04 11:31:02;;;;;;;2.90;0.75;;;8.50;99.90;;;;;;5114265;28;20048;-80
2023/03/04 11:33:42;;;;;;;0.00;0.00;;;8.60;99.90;;;;;;5113946;28;20051;-80
2023/03/04 11:36:20;;;;;;;0.00;0.00;;;8.60;99.90;;;;;;5096377;28;20051;-80
2023/03/04 11:38:50;;;;;;;0.00;0.00;;;8.60;99.90;;;;;;5113275;28;20113;-81
2023/03/04 11:41:30;;;;;;;0.00;0.00;;;8.40;99.90;;;;;;5096537;28;20087;-81
2023/03/04 11:43:58;;;;;;;1.60;0.22;;;8.30;99.90;;;;;;5097396;28;20040;-80
2023/03/04 11:46:35;;;;;;;0.00;0.00;;;8.30;99.90;;;;;;5113975;28;20073;-80
2023/03/04 11:49:16;;;;;;;0.00;0.00;;;8.20;99.90;;;;;;5113579;28;20124;-80
2023/03/04 11:52:13;;;;;;;0.00;0.00;;;8.20;99.90;;;;;;5096742;28;20047;-81
2023/03/04 11:55:06;;;;;;;0.20;0.20;;;8.30;99.90;;;;;;5114207;28;20120;-81
2023/03/04 11:57:52;;;;;;;0.38;0.38;;;8.40;99.90;;;;;;5096770;28;20053;-81
2023/03/04 12:00:41;;;;;;;0.00;0.00;;;8.50;99.90;;;;;;5096669;28;20039;-80
2023/03/04 12:03:41;;;;;;;0.57;0.57;;;8.60;99.90;;;;;;5113699;28;20047;-81
2023/03/04 12:06:30;;;;;;;0.30;0.30;;;8.70;99.90;;;;;;5113520;28;20142;-80
2023/03/04 12:09:27;;;;;;;0.00;0.00;;;8.60;99.90;;;;;;5114005;28;20046;-80
2023/03/04 12:12:32;;;;;;;0.00;0.00;;;8.50;99.90;;;;;;5096587;28;20105;-81
2023/03/04 12:15:11;;;;;;;0.00;0.00;;;8.50;99.90;;;;;;5114039;28;20040;-81
2023/03/04 12:17:46;;;;;;;0.00;0.00;;;8.50;99.90;;;;;;5096143;28;20506;-80
2023/03/04 12:20:30;;;;;;;0.10;0.10;;;8.40;99.90;;;;;;5096399;28;20047;-80
2023/03/04 12:23:22;;;;;;;0.00;0.00;;;8.40;99.90;;;;;;5096350;28;20059;-80
2023/03/04 12:26:22;;;;;;;0.00;0.00;;;8.40;99.90;;;;;;5111809;28;20521;-80
2023/03/04 12:29:01;;;;;;;1.45;1.35;;;8.40;99.90;;;;;;5112912;28;20042;-80
2023/03/04 12:31:40;;;;;;;1.58;0.55;;;8.40;99.90;;;;;;5096320;28;20052;-80
2023/03/04 12:34:28;;;;;;;0.52;0.43;;;8.50;99.90;;;;;;5113018;28;20484;-80
2023/03/04 12:37:04;;;;;;;0.43;0.43;;;8.60;99.90;;;;;;5096186;28;20050;-80
2023/03/04 12:39:44;;;;;;;0.00;0.00;;;8.70;99.90;;;;;;5095488;28;20055;-80
2023/03/04 12:42:21;;;;;;;0.80;0.55;;;8.70;99.90;;;;;;5095852;28;20090;-81
2023/03/04 12:44:59;;;;;;;0.17;0.15;;;8.80;99.90;;;;;;5096742;28;20141;-80
2023/03/04 12:47:30;;;;;;;0.00;0.00;;;8.70;99.90;;;;;;5096177;28;20051;-80
2023/03/04 12:50:14;;;;;;;0.00;0.00;;;8.80;99.90;;;;;;5112965;28;20058;-80
2023/03/04 12:53:08;;;;;;;0.00;0.00;;;8.80;99.90;;;;;;5112721;28;20040;-80
2023/03/04 12:55:39;;;;;;;0.00;0.00;;;8.70;99.90;;;;;;5096678;28;20392;-80
2023/03/04 12:58:12;;;;;;;6.15;1.27;;;8.80;99.90;;;;;;5095684;28;20055;-80
2023/03/04 13:01:14;;;;;;;14.90;0.85;;;9.20;99.90;;;;;;5097043;28;20048;-81
2023/03/04 13:03:56;;;;;;;0.00;0.00;;;9.50;99.90;;;;;;5112963;28;20130;-80
2023/03/04 13:06:28;;;;;;;0.00;0.00;;;9.90;99.90;;;;;;5095393;28;20153;-81
2023/03/04 13:09:16;;;;;;;0.00;0.00;;;9.70;99.90;;;;;;5113428;28;20533;-81
2023/03/04 13:11:46;;;;;;;0.17;0.17;;;9.40;99.90;;;;;;5112509;28;20048;-81